sensor_id;sensor_type;location;lat;lon;timestamp;P1;durP1;ratioP1;P2;durP2;ratioP2
52948;SDS011;38812;50.942;3.644;2023-04-19T00:00:47;26.23;;;19.13;;
52948;SDS011;38812;50.942;3.644;2023-04-19T00:03:12;27.52;;;19.25;;
52948;SDS011;38812;50.942;3.644;2023-04-19T00:05:38;27.17;;;19.48;;
52948;SDS011;38812;50.942;3.644;2023-04-19T00:08:04;27.02;;;18.42;;
52948;SDS011;38812;50.942;3.644;2023-04-19T00:10:30;24.67;;;18.35;;
52948;SDS011;38812;50.942;3.644;2023-04-19T00:12:55;25.95;;;18.52;;
52948;SDS011;38812;50.942;3.644;2023-04-19T00:15:21;26.75;;;19.42;;
52948;SDS011;38812;50.942;3.644;2023-04-19T00:17:46;23.23;;;18.77;;
52948;SDS011;38812;50.942;3.644;2023-04-19T00:20:12;39.15;;;18.70;;
52948;SDS011;38812;50.942;3.644;2023-04-19T00:22:37;29.67;;;19.83;;
52948;SDS011;38812;50.942;3.644;2023-04-19T00:25:03;24.15;;;17.70;;
52948;SDS011;38812;50.942;3.644;2023-04-19T00:27:29;26.98;;;19.77;;
52948;SDS011;38812;50.942;3.644;2023-04-19T00:29:54;26.05;;;19.23;;
52948;SDS011;38812;50.942;3.644;2023-04-19T00:32:21;27.65;;;19.33;;
52948;SDS011;38812;50.942;3.644;2023-04-19T00:34:47;25.52;;;20.08;;
52948;SDS011;38812;50.942;3.644;2023-04-19T00:37:12;26.20;;;19.38;;
52948;SDS011;38812;50.942;3.644;2023-04-19T00:39:38;25.52;;;19.17;;
52948;SDS011;38812;50.942;3.644;2023-04-19T00:42:03;26.70;;;18.80;;
52948;SDS011;38812;50.942;3.644;2023-04-19T00:44:28;27.08;;;19.20;;
52948;SDS011;38812;50.942;3.644;2023-04-19T00:46:54;26.40;;;20.17;;
52948;SDS011;38812;50.942;3.644;2023-04-19T00:49:21;25.02;;;19.42;;
52948;SDS011;38812;50.942;3.644;2023-04-19T00:51:47;26.73;;;19.73;;
52948;SDS011;38812;50.942;3.644;2023-04-19T00:54:14;29.15;;;20.23;;
52948;SDS011;38812;50.942;3.644;2023-04-19T00:56:40;24.63;;;18.55;;
52948;SDS011;38812;50.942;3.644;2023-04-19T00:59:06;27.52;;;19.77;;
52948;SDS011;38812;50.942;3.644;2023-04-19T01:01:32;29.83;;;19.13;;
52948;SDS011;38812;50.942;3.644;2023-04-19T01:03:58;27.20;;;20.73;;
52948;SDS011;38812;50.942;3.644;2023-04-19T01:06:24;28.02;;;19.67;;
52948;SDS011;38812;50.942;3.644;2023-04-19T01:08:52;26.98;;;20.73;;
52948;SDS011;38812;50.942;3.644;2023-04-19T01:11:18;31.60;;;20.17;;
52948;SDS011;38812;50.942;3.644;2023-04-19T01:13:43;26.40;;;20.45;;
52948;SDS011;38812;50.942;3.644;2023-04-19T01:16:08;31.98;;;20.65;;
52948;SDS011;38812;50.942;3.644;2023-04-19T01:18:34;30.35;;;21.90;;
52948;SDS011;38812;50.942;3.644;2023-04-19T01:21:02;31.25;;;19.75;;
52948;SDS011;38812;50.942;3.644;2023-04-19T01:23:28;29.45;;;21.42;;
52948;SDS011;38812;50.942;3.644;2023-04-19T01:25:54;26.67;;;20.25;;
52948;SDS011;38812;50.942;3.644;2023-04-19T01:28:20;31.50;;;20.25;;
52948;SDS011;38812;50.942;3.644;2023-04-19T01:30:45;28.77;;;21.83;;
52948;SDS011;38812;50.942;3.644;2023-04-19T01:33:11;32.67;;;20.48;;
52948;SDS011;38812;50.942;3.644;2023-04-19T01:35:36;26.77;;;20.02;;
52948;SDS011;38812;50.942;3.644;2023-04-19T01:38:02;30.55;;;21.50;;
52948;SDS011;38812;50.942;3.644;2023-04-19T01:40:27;33.20;;;21.55;;
52948;SDS011;38812;50.942;3.644;2023-04-19T01:42:52;26.50;;;19.23;;
52948;SDS011;38812;50.942;3.644;2023-04-19T01:45:18;29.15;;;20.98;;
52948;SDS011;38812;50.942;3.644;2023-04-19T01:47:44;28.52;;;20.48;;
52948;SDS011;38812;50.942;3.644;2023-04-19T01:50:09;30.10;;;21.58;;
52948;SDS011;38812;50.942;3.644;2023-04-19T01:52:35;27.83;;;19.83;;
52948;SDS011;38812;50.942;3.644;2023-04-19T01:55:00;33.17;;;22.17;;
52948;SDS011;38812;50.942;3.644;2023-04-19T01:57:26;28.35;;;20.55;;
52948;SDS011;38812;50.942;3.644;2023-04-19T01:59:54;30.02;;;21.15;;
52948;SDS011;38812;50.942;3.644;2023-04-19T02:02:19;32.63;;;21.35;;
52948;SDS011;38812;50.942;3.644;2023-04-19T02:04:45;29.40;;;21.15;;
52948;SDS011;38812;50.942;3.644;2023-04-19T02:07:10;32.65;;;22.60;;
52948;SDS011;38812;50.942;3.644;2023-04-19T02:09:36;28.52;;;20.67;;
52948;SDS011;38812;50.942;3.644;2023-04-19T02:12:03;30.52;;;22.17;;
52948;SDS011;38812;50.942;3.644;2023-04-19T02:14:29;30.75;;;21.08;;
52948;SDS011;38812;50.942;3.644;2023-04-19T02:16:54;31.83;;;21.88;;
52948;SDS011;38812;50.942;3.644;2023-04-19T02:19:20;31.00;;;23.67;;
52948;SDS011;38812;50.942;3.644;2023-04-19T02:21:45;31.23;;;22.42;;
52948;SDS011;38812;50.942;3.644;2023-04-19T02:24:11;29.63;;;20.85;;
52948;SDS011;38812;50.942;3.644;2023-04-19T02:26:36;30.17;;;21.20;;
52948;SDS011;38812;50.942;3.644;2023-04-19T02:29:02;34.78;;;22.58;;
52948;SDS011;38812;50.942;3.644;2023-04-19T02:31:28;35.13;;;21.60;;
52948;SDS011;38812;50.942;3.644;2023-04-19T02:33:53;30.98;;;22.42;;
52948;SDS011;38812;50.942;3.644;2023-04-19T02:36:19;33.90;;;23.33;;
52948;SDS011;38812;50.942;3.644;2023-04-19T02:38:44;30.05;;;21.45;;
52948;SDS011;38812;50.942;3.644;2023-04-19T02:41:09;37.80;;;23.00;;
52948;SDS011;38812;50.942;3.644;2023-04-19T02:43:35;32.63;;;23.38;;
52948;SDS011;38812;50.942;3.644;2023-04-19T02:46:00;31.15;;;21.65;;
52948;SDS011;38812;50.942;3.644;2023-04-19T02:48:26;34.05;;;22.63;;
52948;SDS011;38812;50.942;3.644;2023-04-19T02:50:51;32.80;;;23.73;;
52948;SDS011;38812;50.942;3.644;2023-04-19T02:53:16;35.17;;;22.45;;
52948;SDS011;38812;50.942;3.644;2023-04-19T02:55:42;29.98;;;21.73;;
52948;SDS011;38812;50.942;3.644;2023-04-19T02:58:07;31.70;;;23.73;;
52948;SDS011;38812;50.942;3.644;2023-04-19T03:00:33;38.75;;;23.50;;
52948;SDS011;38812;50.942;3.644;2023-04-19T03:02:58;34.45;;;24.65;;
52948;SDS011;38812;50.942;3.644;2023-04-19T03:05:24;33.88;;;22.67;;
52948;SDS011;38812;50.942;3.644;2023-04-19T03:07:49;36.83;;;24.42;;
52948;SDS011;38812;50.942;3.644;2023-04-19T03:10:15;33.78;;;24.27;;
52948;SDS011;38812;50.942;3.644;2023-04-19T03:12:41;33.97;;;22.85;;
52948;SDS011;38812;50.942;3.644;2023-04-19T03:15:06;40.70;;;24.60;;
52948;SDS011;38812;50.942;3.644;2023-04-19T03:17:32;37.95;;;23.15;;
52948;SDS011;38812;50.942;3.644;2023-04-19T03:19:57;33.80;;;23.40;;
52948;SDS011;38812;50.942;3.644;2023-04-19T03:22:23;34.60;;;24.40;;
52948;SDS011;38812;50.942;3.644;2023-04-19T03:24:48;32.53;;;23.63;;
52948;SDS011;38812;50.942;3.644;2023-04-19T03:27:13;34.13;;;24.70;;
52948;SDS011;38812;50.942;3.644;2023-04-19T03:29:39;33.88;;;24.85;;
52948;SDS011;38812;50.942;3.644;2023-04-19T03:32:05;34.35;;;24.40;;
52948;SDS011;38812;50.942;3.644;2023-04-19T03:34:31;37.03;;;24.88;;
52948;SDS011;38812;50.942;3.644;2023-04-19T03:36:56;36.28;;;24.58;;
52948;SDS011;38812;50.942;3.644;2023-04-19T03:39:22;35.90;;;23.67;;
52948;SDS011;38812;50.942;3.644;2023-04-19T03:41:47;34.75;;;24.95;;
52948;SDS011;38812;50.942;3.644;2023-04-19T03:44:12;34.90;;;24.42;;
52948;SDS011;38812;50.942;3.644;2023-04-19T03:46:38;33.78;;;23.48;;
52948;SDS011;38812;50.942;3.644;2023-04-19T03:49:03;34.55;;;24.48;;
52948;SDS011;38812;50.942;3.644;2023-04-19T03:51:28;33.65;;;24.52;;
52948;SDS011;38812;50.942;3.644;2023-04-19T03:53:55;35.75;;;25.08;;
52948;SDS011;38812;50.942;3.644;2023-04-19T03:56:20;36.30;;;23.67;;
52948;SDS011;38812;50.942;3.644;2023-04-19T03:58:46;32.58;;;24.13;;
52948;SDS011;38812;50.942;3.644;2023-04-19T04:01:17;31.70;;;23.33;;
52948;SDS011;38812;50.942;3.644;2023-04-19T04:03:43;31.23;;;22.90;;
52948;SDS011;38812;50.942;3.644;2023-04-19T04:06:09;30.90;;;23.02;;
52948;SDS011;38812;50.942;3.644;2023-04-19T04:08:34;33.60;;;24.02;;
52948;SDS011;38812;50.942;3.644;2023-04-19T04:11:00;35.47;;;24.17;;
52948;SDS011;38812;50.942;3.644;2023-04-19T04:13:25;30.10;;;22.25;;
52948;SDS011;38812;50.942;3.644;2023-04-19T04:15:51;32.13;;;22.77;;
52948;SDS011;38812;50.942;3.644;2023-04-19T04:18:16;32.30;;;23.25;;
52948;SDS011;38812;50.942;3.644;2023-04-19T04:20:42;34.38;;;22.55;;
52948;SDS011;38812;50.942;3.644;2023-04-19T04:23:08;30.90;;;23.05;;
52948;SDS011;38812;50.942;3.644;2023-04-19T04:25:34;33.35;;;24.02;;
52948;SDS011;38812;50.942;3.644;2023-04-19T04:28:01;33.30;;;22.48;;
52948;SDS011;38812;50.942;3.644;2023-04-19T04:30:31;33.65;;;23.75;;
52948;SDS011;38812;50.942;3.644;2023-04-19T04:32:57;31.42;;;23.23;;
52948;SDS011;38812;50.942;3.644;2023-04-19T04:35:23;31.55;;;23.65;;
52948;SDS011;38812;50.942;3.644;2023-04-19T04:37:48;33.60;;;23.40;;
52948;SDS011;38812;50.942;3.644;2023-04-19T04:40:14;31.58;;;23.15;;
52948;SDS011;38812;50.942;3.644;2023-04-19T04:42:40;30.13;;;23.67;;
52948;SDS011;38812;50.942;3.644;2023-04-19T04:45:06;29.95;;;23.70;;
52948;SDS011;38812;50.942;3.644;2023-04-19T04:47:34;30.70;;;23.45;;
52948;SDS011;38812;50.942;3.644;2023-04-19T04:50:01;30.48;;;24.10;;
52948;SDS011;38812;50.942;3.644;2023-04-19T04:52:27;31.88;;;23.15;;
52948;SDS011;38812;50.942;3.644;2023-04-19T04:54:53;32.70;;;23.13;;
52948;SDS011;38812;50.942;3.644;2023-04-19T04:57:18;32.33;;;23.58;;
52948;SDS011;38812;50.942;3.644;2023-04-19T04:59:44;32.65;;;22.63;;
52948;SDS011;38812;50.942;3.644;2023-04-19T05:02:12;30.75;;;22.27;;
52948;SDS011;38812;50.942;3.644;2023-04-19T05:04:40;31.85;;;23.13;;
52948;SDS011;38812;50.942;3.644;2023-04-19T05:07:06;29.35;;;22.55;;
52948;SDS011;38812;50.942;3.644;2023-04-19T05:09:31;31.55;;;22.58;;
52948;SDS011;38812;50.942;3.644;2023-04-19T05:11:56;38.53;;;23.27;;
52948;SDS011;38812;50.942;3.644;2023-04-19T05:14:22;32.70;;;22.58;;
52948;SDS011;38812;50.942;3.644;2023-04-19T05:16:47;30.40;;;22.50;;
52948;SDS011;38812;50.942;3.644;2023-04-19T05:19:12;32.38;;;23.25;;
52948;SDS011;38812;50.942;3.644;2023-04-19T05:21:38;30.05;;;22.23;;
52948;SDS011;38812;50.942;3.644;2023-04-19T05:24:03;31.80;;;21.75;;
52948;SDS011;38812;50.942;3.644;2023-04-19T05:26:29;28.00;;;20.77;;
52948;SDS011;38812;50.942;3.644;2023-04-19T05:28:54;30.52;;;20.85;;
52948;SDS011;38812;50.942;3.644;2023-04-19T05:31:20;30.27;;;21.48;;
52948;SDS011;38812;50.942;3.644;2023-04-19T05:33:46;37.10;;;21.13;;
52948;SDS011;38812;50.942;3.644;2023-04-19T05:36:11;33.92;;;21.05;;
52948;SDS011;38812;50.942;3.644;2023-04-19T05:38:37;25.63;;;19.63;;
52948;SDS011;38812;50.942;3.644;2023-04-19T05:41:04;29.50;;;20.58;;
52948;SDS011;38812;50.942;3.644;2023-04-19T05:43:29;28.75;;;19.40;;
52948;SDS011;38812;50.942;3.644;2023-04-19T05:45:55;29.40;;;18.70;;
52948;SDS011;38812;50.942;3.644;2023-04-19T05:48:21;26.67;;;18.30;;
52948;SDS011;38812;50.942;3.644;2023-04-19T05:50:46;25.38;;;18.67;;
52948;SDS011;38812;50.942;3.644;2023-04-19T05:53:12;25.60;;;18.95;;
52948;SDS011;38812;50.942;3.644;2023-04-19T05:55:37;26.52;;;17.42;;
52948;SDS011;38812;50.942;3.644;2023-04-19T05:58:02;36.58;;;19.27;;
52948;SDS011;38812;50.942;3.644;2023-04-19T06:00:28;25.23;;;19.00;;
52948;SDS011;38812;50.942;3.644;2023-04-19T06:02:53;26.55;;;18.95;;
52948;SDS011;38812;50.942;3.644;2023-04-19T06:05:19;26.40;;;17.70;;
52948;SDS011;38812;50.942;3.644;2023-04-19T06:07:44;26.77;;;17.63;;
52948;SDS011;38812;50.942;3.644;2023-04-19T06:10:10;24.52;;;17.90;;
52948;SDS011;38812;50.942;3.644;2023-04-19T06:12:35;26.98;;;18.52;;
52948;SDS011;38812;50.942;3.644;2023-04-19T06:15:00;22.65;;;18.02;;
52948;SDS011;38812;50.942;3.644;2023-04-19T06:17:26;27.58;;;18.23;;
52948;SDS011;38812;50.942;3.644;2023-04-19T06:19:51;22.15;;;16.63;;
52948;SDS011;38812;50.942;3.644;2023-04-19T06:22:17;26.67;;;18.48;;
52948;SDS011;38812;50.942;3.644;2023-04-19T06:24:43;27.83;;;17.80;;
52948;SDS011;38812;50.942;3.644;2023-04-19T06:27:13;26.33;;;18.65;;
52948;SDS011;38812;50.942;3.644;2023-04-19T06:29:39;23.38;;;18.10;;
52948;SDS011;38812;50.942;3.644;2023-04-19T06:32:05;26.17;;;17.75;;
52948;SDS011;38812;50.942;3.644;2023-04-19T06:34:30;26.67;;;16.55;;
52948;SDS011;38812;50.942;3.644;2023-04-19T06:36:55;24.77;;;18.02;;
52948;SDS011;38812;50.942;3.644;2023-04-19T06:39:21;23.08;;;16.73;;
52948;SDS011;38812;50.942;3.644;2023-04-19T06:41:46;22.92;;;16.80;;
52948;SDS011;38812;50.942;3.644;2023-04-19T06:44:11;21.45;;;15.45;;
52948;SDS011;38812;50.942;3.644;2023-04-19T06:46:37;19.02;;;15.93;;
52948;SDS011;38812;50.942;3.644;2023-04-19T06:49:03;26.90;;;16.30;;
52948;SDS011;38812;50.942;3.644;2023-04-19T06:51:29;23.25;;;15.52;;
52948;SDS011;38812;50.942;3.644;2023-04-19T06:53:54;23.05;;;16.05;;
52948;SDS011;38812;50.942;3.644;2023-04-19T06:56:37;26.63;;;14.65;;
52948;SDS011;38812;50.942;3.644;2023-04-19T06:59:06;22.10;;;15.18;;
52948;SDS011;38812;50.942;3.644;2023-04-19T07:01:32;20.23;;;14.00;;
52948;SDS011;38812;50.942;3.644;2023-04-19T07:03:57;22.60;;;15.18;;
52948;SDS011;38812;50.942;3.644;2023-04-19T07:06:22;24.85;;;14.13;;
52948;SDS011;38812;50.942;3.644;2023-04-19T07:08:48;21.15;;;15.07;;
52948;SDS011;38812;50.942;3.644;2023-04-19T07:11:13;24.25;;;14.50;;
52948;SDS011;38812;50.942;3.644;2023-04-19T07:13:38;21.60;;;13.77;;
52948;SDS011;38812;50.942;3.644;2023-04-19T07:16:04;21.02;;;13.23;;
52948;SDS011;38812;50.942;3.644;2023-04-19T07:18:31;22.55;;;14.98;;
52948;SDS011;38812;50.942;3.644;2023-04-19T07:20:56;20.90;;;14.98;;
52948;SDS011;38812;50.942;3.644;2023-04-19T07:23:22;19.55;;;12.77;;
52948;SDS011;38812;50.942;3.644;2023-04-19T07:25:47;18.98;;;14.23;;
52948;SDS011;38812;50.942;3.644;2023-04-19T07:28:13;19.40;;;13.95;;
52948;SDS011;38812;50.942;3.644;2023-04-19T07:30:39;19.17;;;13.80;;
52948;SDS011;38812;50.942;3.644;2023-04-19T07:33:05;21.83;;;12.85;;
52948;SDS011;38812;50.942;3.644;2023-04-19T07:35:32;20.02;;;14.02;;
52948;SDS011;38812;50.942;3.644;2023-04-19T07:37:58;18.25;;;12.75;;
52948;SDS011;38812;50.942;3.644;2023-04-19T07:40:23;21.33;;;13.20;;
52948;SDS011;38812;50.942;3.644;2023-04-19T07:42:49;15.98;;;12.05;;
52948;SDS011;38812;50.942;3.644;2023-04-19T07:45:15;17.02;;;12.63;;
52948;SDS011;38812;50.942;3.644;2023-04-19T07:47:40;19.20;;;12.05;;
52948;SDS011;38812;50.942;3.644;2023-04-19T07:50:06;16.88;;;11.50;;
52948;SDS011;38812;50.942;3.644;2023-04-19T07:52:32;17.50;;;12.20;;
52948;SDS011;38812;50.942;3.644;2023-04-19T07:54:57;17.92;;;12.48;;
52948;SDS011;38812;50.942;3.644;2023-04-19T07:57:23;16.55;;;11.02;;
52948;SDS011;38812;50.942;3.644;2023-04-19T07:59:48;16.52;;;11.85;;
52948;SDS011;38812;50.942;3.644;2023-04-19T08:02:13;16.65;;;11.07;;
52948;SDS011;38812;50.942;3.644;2023-04-19T08:04:40;14.68;;;10.82;;
52948;SDS011;38812;50.942;3.644;2023-04-19T08:07:05;18.30;;;11.20;;
52948;SDS011;38812;50.942;3.644;2023-04-19T08:09:33;14.52;;;10.90;;
52948;SDS011;38812;50.942;3.644;2023-04-19T08:11:58;14.88;;;10.85;;
52948;SDS011;38812;50.942;3.644;2023-04-19T08:14:25;14.48;;;10.40;;
52948;SDS011;38812;50.942;3.644;2023-04-19T08:16:50;15.95;;;9.38;;
52948;SDS011;38812;50.942;3.644;2023-04-19T08:19:16;12.65;;;10.38;;
52948;SDS011;38812;50.942;3.644;2023-04-19T08:21:41;18.08;;;11.48;;
52948;SDS011;38812;50.942;3.644;2023-04-19T08:24:06;15.68;;;10.15;;
52948;SDS011;38812;50.942;3.644;2023-04-19T08:26:32;13.25;;;9.05;;
52948;SDS011;38812;50.942;3.644;2023-04-19T08:28:57;12.77;;;8.73;;
52948;SDS011;38812;50.942;3.644;2023-04-19T08:31:23;18.48;;;9.98;;
52948;SDS011;38812;50.942;3.644;2023-04-19T08:33:48;18.67;;;9.85;;
52948;SDS011;38812;50.942;3.644;2023-04-19T08:36:13;12.25;;;9.32;;
52948;SDS011;38812;50.942;3.644;2023-04-19T08:38:40;14.60;;;9.63;;
52948;SDS011;38812;50.942;3.644;2023-04-19T08:41:05;13.18;;;9.32;;
52948;SDS011;38812;50.942;3.644;2023-04-19T08:43:33;14.20;;;10.45;;
52948;SDS011;38812;50.942;3.644;2023-04-19T08:46:01;12.70;;;9.65;;
52948;SDS011;38812;50.942;3.644;2023-04-19T08:48:28;14.15;;;9.73;;
52948;SDS011;38812;50.942;3.644;2023-04-19T08:50:55;12.57;;;8.93;;
52948;SDS011;38812;50.942;3.644;2023-04-19T08:53:22;13.30;;;8.95;;
52948;SDS011;38812;50.942;3.644;2023-04-19T08:55:52;11.48;;;8.95;;
52948;SDS011;38812;50.942;3.644;2023-04-19T08:58:23;14.15;;;10.13;;
52948;SDS011;38812;50.942;3.644;2023-04-19T09:00:50;16.05;;;9.63;;
52948;SDS011;38812;50.942;3.644;2023-04-19T09:03:15;12.55;;;8.93;;
52948;SDS011;38812;50.942;3.644;2023-04-19T09:05:41;12.63;;;9.40;;
52948;SDS011;38812;50.942;3.644;2023-04-19T09:10:58;18.27;;;9.80;;
52948;SDS011;38812;50.942;3.644;2023-04-19T09:13:25;11.98;;;9.20;;
52948;SDS011;38812;50.942;3.644;2023-04-19T09:15:54;12.35;;;8.82;;
52948;SDS011;38812;50.942;3.644;2023-04-19T09:18:21;13.45;;;8.70;;
52948;SDS011;38812;50.942;3.644;2023-04-19T09:20:51;11.23;;;9.00;;
52948;SDS011;38812;50.942;3.644;2023-04-19T09:23:24;11.23;;;8.88;;
52948;SDS011;38812;50.942;3.644;2023-04-19T09:28:21;13.27;;;8.85;;
52948;SDS011;38812;50.942;3.644;2023-04-19T09:30:46;13.98;;;9.30;;
52948;SDS011;38812;50.942;3.644;2023-04-19T09:33:12;12.85;;;9.00;;
52948;SDS011;38812;50.942;3.644;2023-04-19T09:35:38;14.05;;;8.80;;
52948;SDS011;38812;50.942;3.644;2023-04-19T09:38:09;10.57;;;8.20;;
52948;SDS011;38812;50.942;3.644;2023-04-19T09:40:35;10.13;;;8.07;;
52948;SDS011;38812;50.942;3.644;2023-04-19T09:43:01;10.48;;;8.10;;
52948;SDS011;38812;50.942;3.644;2023-04-19T09:45:28;16.02;;;8.55;;
52948;SDS011;38812;50.942;3.644;2023-04-19T09:48:10;14.88;;;8.93;;
52948;SDS011;38812;50.942;3.644;2023-04-19T09:50:58;12.60;;;8.07;;
52948;SDS011;38812;50.942;3.644;2023-04-19T09:53:25;13.40;;;8.25;;
52948;SDS011;38812;50.942;3.644;2023-04-19T09:55:51;9.23;;;7.43;;
52948;SDS011;38812;50.942;3.644;2023-04-19T09:58:18;9.70;;;7.95;;
52948;SDS011;38812;50.942;3.644;2023-04-19T10:00:44;16.88;;;8.68;;
52948;SDS011;38812;50.942;3.644;2023-04-19T10:03:12;11.30;;;8.10;;
52948;SDS011;38812;50.942;3.644;2023-04-19T10:05:41;10.15;;;7.90;;
52948;SDS011;38812;50.942;3.644;2023-04-19T10:08:08;10.98;;;8.32;;
52948;SDS011;38812;50.942;3.644;2023-04-19T10:10:35;12.48;;;9.18;;
52948;SDS011;38812;50.942;3.644;2023-04-19T10:13:04;12.90;;;7.95;;
52948;SDS011;38812;50.942;3.644;2023-04-19T10:15:34;11.95;;;7.40;;
52948;SDS011;38812;50.942;3.644;2023-04-19T10:18:01;13.13;;;7.88;;
52948;SDS011;38812;50.942;3.644;2023-04-19T10:21:10;10.30;;;6.50;;
52948;SDS011;38812;50.942;3.644;2023-04-19T10:23:23;8.88;;;6.45;;
52948;SDS011;38812;50.942;3.644;2023-04-19T10:25:53;11.02;;;6.65;;
52948;SDS011;38812;50.942;3.644;2023-04-19T10:28:23;9.52;;;6.85;;
52948;SDS011;38812;50.942;3.644;2023-04-19T10:30:52;6.97;;;5.68;;
52948;SDS011;38812;50.942;3.644;2023-04-19T10:33:26;12.15;;;6.10;;
52948;SDS011;38812;50.942;3.644;2023-04-19T10:35:56;11.38;;;6.35;;
52948;SDS011;38812;50.942;3.644;2023-04-19T10:41:13;8.13;;;6.72;;
52948;SDS011;38812;50.942;3.644;2023-04-19T10:48:58;6.32;;;5.53;;
52948;SDS011;38812;50.942;3.644;2023-04-19T10:54:01;7.40;;;5.85;;
52948;SDS011;38812;50.942;3.644;2023-04-19T11:01:39;9.38;;;5.32;;
52948;SDS011;38812;50.942;3.644;2023-04-19T11:09:21;6.93;;;6.00;;
52948;SDS011;38812;50.942;3.644;2023-04-19T11:11:51;11.10;;;5.78;;
52948;SDS011;38812;50.942;3.644;2023-04-19T11:14:16;6.15;;;5.18;;
52948;SDS011;38812;50.942;3.644;2023-04-19T11:16:44;8.38;;;5.53;;
52948;SDS011;38812;50.942;3.644;2023-04-19T11:19:13;7.40;;;5.30;;
52948;SDS011;38812;50.942;3.644;2023-04-19T11:21:44;8.27;;;5.32;;
52948;SDS011;38812;50.942;3.644;2023-04-19T11:24:12;7.32;;;5.30;;
52948;SDS011;38812;50.942;3.644;2023-04-19T11:26:43;6.55;;;5.10;;
52948;SDS011;38812;50.942;3.644;2023-04-19T11:29:10;7.75;;;5.50;;
52948;SDS011;38812;50.942;3.644;2023-04-19T11:31:36;9.43;;;5.88;;
52948;SDS011;38812;50.942;3.644;2023-04-19T11:34:02;8.07;;;6.38;;
52948;SDS011;38812;50.942;3.644;2023-04-19T11:36:28;7.50;;;5.75;;
52948;SDS011;38812;50.942;3.644;2023-04-19T11:38:53;7.45;;;5.57;;
52948;SDS011;38812;50.942;3.644;2023-04-19T11:41:18;8.43;;;5.78;;
52948;SDS011;38812;50.942;3.644;2023-04-19T11:43:44;8.70;;;5.97;;
52948;SDS011;38812;50.942;3.644;2023-04-19T11:46:11;8.20;;;5.78;;
52948;SDS011;38812;50.942;3.644;2023-04-19T11:48:53;8.77;;;5.80;;
52948;SDS011;38812;50.942;3.644;2023-04-19T11:51:18;7.13;;;4.95;;
52948;SDS011;38812;50.942;3.644;2023-04-19T11:53:44;7.40;;;6.22;;
52948;SDS011;38812;50.942;3.644;2023-04-19T11:56:10;7.88;;;5.47;;
52948;SDS011;38812;50.942;3.644;2023-04-19T11:58:36;7.32;;;5.75;;
52948;SDS011;38812;50.942;3.644;2023-04-19T12:01:07;9.02;;;6.75;;
52948;SDS011;38812;50.942;3.644;2023-04-19T12:03:38;8.20;;;6.15;;
52948;SDS011;38812;50.942;3.644;2023-04-19T12:06:10;23.15;;;7.20;;
52948;SDS011;38812;50.942;3.644;2023-04-19T12:08:44;14.27;;;6.45;;
52948;SDS011;38812;50.942;3.644;2023-04-19T12:11:11;8.48;;;6.28;;
52948;SDS011;38812;50.942;3.644;2023-04-19T12:13:38;10.65;;;6.10;;
52948;SDS011;38812;50.942;3.644;2023-04-19T12:16:08;8.02;;;6.65;;
52948;SDS011;38812;50.942;3.644;2023-04-19T12:18:41;9.63;;;6.30;;
52948;SDS011;38812;50.942;3.644;2023-04-19T12:21:08;10.45;;;6.60;;
52948;SDS011;38812;50.942;3.644;2023-04-19T12:23:35;8.30;;;6.47;;
52948;SDS011;38812;50.942;3.644;2023-04-19T12:26:02;12.70;;;7.07;;
52948;SDS011;38812;50.942;3.644;2023-04-19T12:28:29;8.10;;;6.57;;
52948;SDS011;38812;50.942;3.644;2023-04-19T12:30:55;7.93;;;6.55;;
52948;SDS011;38812;50.942;3.644;2023-04-19T12:33:20;13.05;;;5.95;;
52948;SDS011;38812;50.942;3.644;2023-04-19T12:35:45;8.55;;;6.32;;
52948;SDS011;38812;50.942;3.644;2023-04-19T12:38:11;8.30;;;6.45;;
52948;SDS011;38812;50.942;3.644;2023-04-19T12:40:36;13.27;;;7.75;;
52948;SDS011;38812;50.942;3.644;2023-04-19T12:43:01;14.05;;;7.68;;
52948;SDS011;38812;50.942;3.644;2023-04-19T12:45:27;7.00;;;5.82;;
52948;SDS011;38812;50.942;3.644;2023-04-19T12:47:52;8.05;;;6.63;;
52948;SDS011;38812;50.942;3.644;2023-04-19T12:50:18;8.70;;;6.78;;
52948;SDS011;38812;50.942;3.644;2023-04-19T12:52:43;8.02;;;7.03;;
52948;SDS011;38812;50.942;3.644;2023-04-19T12:55:10;12.85;;;7.45;;
52948;SDS011;38812;50.942;3.644;2023-04-19T12:57:35;11.88;;;8.25;;
52948;SDS011;38812;50.942;3.644;2023-04-19T13:00:00;10.50;;;7.88;;
52948;SDS011;38812;50.942;3.644;2023-04-19T13:02:26;9.38;;;7.50;;
52948;SDS011;38812;50.942;3.644;2023-04-19T13:04:51;8.27;;;7.03;;
52948;SDS011;38812;50.942;3.644;2023-04-19T13:07:17;11.57;;;7.60;;
52948;SDS011;38812;50.942;3.644;2023-04-19T13:09:42;10.30;;;6.68;;
52948;SDS011;38812;50.942;3.644;2023-04-19T13:12:07;9.98;;;7.82;;
52948;SDS011;38812;50.942;3.644;2023-04-19T13:14:33;7.90;;;6.25;;
52948;SDS011;38812;50.942;3.644;2023-04-19T13:16:58;11.20;;;7.50;;
52948;SDS011;38812;50.942;3.644;2023-04-19T13:19:24;8.82;;;7.18;;
52948;SDS011;38812;50.942;3.644;2023-04-19T13:21:49;9.38;;;7.47;;
52948;SDS011;38812;50.942;3.644;2023-04-19T13:24:15;11.55;;;5.90;;
52948;SDS011;38812;50.942;3.644;2023-04-19T13:26:40;7.88;;;6.15;;
52948;SDS011;38812;50.942;3.644;2023-04-19T13:29:05;9.65;;;6.35;;
52948;SDS011;38812;50.942;3.644;2023-04-19T13:31:34;9.77;;;6.03;;
52948;SDS011;38812;50.942;3.644;2023-04-19T13:33:59;7.75;;;5.90;;
52948;SDS011;38812;50.942;3.644;2023-04-19T13:36:25;8.27;;;6.13;;
52948;SDS011;38812;50.942;3.644;2023-04-19T13:38:52;9.45;;;5.35;;
52948;SDS011;38812;50.942;3.644;2023-04-19T13:41:18;10.07;;;5.40;;
52948;SDS011;38812;50.942;3.644;2023-04-19T13:43:44;11.25;;;5.35;;
52948;SDS011;38812;50.942;3.644;2023-04-19T13:46:10;6.90;;;5.53;;
52948;SDS011;38812;50.942;3.644;2023-04-19T13:48:35;9.88;;;5.53;;
52948;SDS011;38812;50.942;3.644;2023-04-19T13:51:00;9.52;;;4.70;;
52948;SDS011;38812;50.942;3.644;2023-04-19T13:53:26;7.88;;;4.45;;
52948;SDS011;38812;50.942;3.644;2023-04-19T13:55:53;5.20;;;3.92;;
52948;SDS011;38812;50.942;3.644;2023-04-19T13:58:19;5.78;;;4.03;;
52948;SDS011;38812;50.942;3.644;2023-04-19T14:00:44;10.48;;;3.80;;
52948;SDS011;38812;50.942;3.644;2023-04-19T14:03:09;10.73;;;4.85;;
52948;SDS011;38812;50.942;3.644;2023-04-19T14:05:35;5.57;;;3.53;;
52948;SDS011;38812;50.942;3.644;2023-04-19T14:08:01;6.18;;;3.63;;
52948;SDS011;38812;50.942;3.644;2023-04-19T14:10:26;7.65;;;4.25;;
52948;SDS011;38812;50.942;3.644;2023-04-19T14:12:52;6.25;;;3.83;;
52948;SDS011;38812;50.942;3.644;2023-04-19T14:15:18;11.90;;;3.75;;
52948;SDS011;38812;50.942;3.644;2023-04-19T14:17:44;9.73;;;3.40;;
52948;SDS011;38812;50.942;3.644;2023-04-19T14:20:10;5.45;;;3.35;;
52948;SDS011;38812;50.942;3.644;2023-04-19T14:22:35;5.68;;;3.40;;
52948;SDS011;38812;50.942;3.644;2023-04-19T14:25:01;7.68;;;3.28;;
52948;SDS011;38812;50.942;3.644;2023-04-19T14:27:27;3.38;;;2.88;;
52948;SDS011;38812;50.942;3.644;2023-04-19T14:29:53;6.65;;;3.60;;
52948;SDS011;38812;50.942;3.644;2023-04-19T14:32:18;7.10;;;2.80;;
52948;SDS011;38812;50.942;3.644;2023-04-19T14:34:44;5.75;;;3.20;;
52948;SDS011;38812;50.942;3.644;2023-04-19T14:37:09;6.75;;;2.88;;
52948;SDS011;38812;50.942;3.644;2023-04-19T14:39:35;4.88;;;3.33;;
52948;SDS011;38812;50.942;3.644;2023-04-19T14:42:00;8.68;;;3.47;;
52948;SDS011;38812;50.942;3.644;2023-04-19T14:44:26;3.15;;;2.58;;
52948;SDS011;38812;50.942;3.644;2023-04-19T14:46:51;6.85;;;2.55;;
52948;SDS011;38812;50.942;3.644;2023-04-19T14:49:16;7.20;;;2.90;;
52948;SDS011;38812;50.942;3.644;2023-04-19T14:51:42;4.22;;;2.78;;